Time;durP1;ratioP1;P1;durP2;ratioP2;P2;SDS_P1;SDS_P2;PMS_P1;PMS_P2;Temp;Humidity;BMP_temperature;BMP_pressure;BME280_temperature;BME280_humidity;BME280_pressure;Samples;Min_cycle;Max_cycle;Signal;HPM_P1;HPM_P2
2023/10/31 00:02:27;;;;;;;2.83;1.92;;;;;;;12.09;100.00;98612.09;5070288;28;20443;-72
2023/10/31 00:04:57;;;;;;;3.67;2.42;;;;;;;12.06;100.00;98601.72;5066299;28;20156;-72
2023/10/31 00:07:27;;;;;;;3.53;2.10;;;;;;;12.07;100.00;98613.16;5067775;28;20388;-72
2023/10/31 00:09:54;;;;;;;2.72;2.05;;;;;;;12.02;100.00;98610.88;5044209;28;20074;-73
2023/10/31 00:12:25;;;;;;;3.78;2.30;;;;;;;11.89;100.00;98607.53;5049180;28;20040;-71
2023/10/31 00:14:54;;;;;;;2.97;1.77;;;;;;;11.96;100.00;98629.97;5065670;28;20032;-74
2023/10/31 00:17:22;;;;;;;4.00;2.10;;;;;;;11.97;100.00;98634.28;5066560;28;20041;-72
2023/10/31 00:19:50;;;;;;;2.88;1.73;;;;;;;11.98;100.00;98638.63;5060861;28;20066;-72
2023/10/31 00:22:19;;;;;;;2.25;1.40;;;;;;;11.97;100.00;98638.72;5068118;28;20053;-72
2023/10/31 00:24:47;;;;;;;1.65;1.55;;;;;;;11.86;100.00;98627.19;5075404;28;20045;-73
2023/10/31 00:27:15;;;;;;;2.67;1.52;;;;;;;11.89;100.00;98632.25;5060455;28;20048;-73
2023/10/31 00:29:44;;;;;;;2.35;1.20;;;;;;;11.80;100.00;98633.00;5060911;28;20045;-72
2023/10/31 00:32:14;;;;;;;2.20;1.50;;;;;;;11.82;100.00;98641.66;5068222;28;20143;-72
2023/10/31 00:34:42;;;;;;;2.15;1.42;;;;;;;11.80;100.00;98650.72;5068889;28;20140;-72
2023/10/31 00:37:10;;;;;;;1.48;1.02;;;;;;;11.76;100.00;98654.56;5064308;28;20059;-73
2023/10/31 00:39:38;;;;;;;1.50;1.10;;;;;;;11.80;100.00;98671.94;5058822;28;20037;-72
2023/10/31 00:42:08;;;;;;;1.02;0.85;;;;;;;11.81;100.00;98670.94;5050526;28;20051;-72
2023/10/31 00:44:36;;;;;;;0.90;0.90;;;;;;;11.75;100.00;98660.81;5066288;28;20053;-72
2023/10/31 00:47:05;;;;;;;1.67;1.15;;;;;;;11.82;100.00;98668.16;5066268;28;20044;-73
2023/10/31 00:49:39;;;;;;;1.17;0.80;;;;;;;11.85;100.00;98675.91;5061944;28;20049;-73
2023/10/31 00:52:07;;;;;;;0.98;0.75;;;;;;;11.83;100.00;98664.56;5053873;28;20046;-72
2023/10/31 00:54:37;;;;;;;1.63;0.73;;;;;;;11.81;100.00;98668.28;5058467;28;20071;-72
2023/10/31 00:57:05;;;;;;;2.15;0.70;;;;;;;11.80;100.00;98663.97;5074099;28;20040;-73
2023/10/31 00:59:34;;;;;;;1.40;0.50;;;;;;;11.78;100.00;98666.75;5046053;28;20036;-73
2023/10/31 01:02:04;;;;;;;1.75;0.77;;;;;;;11.80;100.00;98682.53;5085839;28;20040;-73
2023/10/31 01:04:34;;;;;;;0.85;0.70;;;;;;;11.79;100.00;98684.34;5090707;28;20029;-73
2023/10/31 01:07:05;;;;;;;;;;;;;;;11.73;100.00;98681.28;5060872;28;20509;-72
2023/10/31 01:09:33;;;;;;;2.97;0.85;;;;;;;11.60;100.00;98684.06;5064188;28;19947;-74
2023/10/31 01:12:02;;;;;;;1.33;0.60;;;;;;;11.56;100.00;98702.03;5072200;28;20071;-72
2023/10/31 01:14:29;;;;;;;1.08;0.40;;;;;;;11.47;100.00;98691.28;5076552;28;20036;-73
2023/10/31 01:16:57;;;;;;;1.05;0.60;;;;;;;11.32;100.00;98680.06;5080149;28;20108;-72
2023/10/31 01:19:25;;;;;;;0.77;0.75;;;;;;;11.33;100.00;98689.72;5066631;28;20064;-71
2023/10/31 01:21:53;;;;;;;0.88;0.70;;;;;;;11.30;100.00;98689.94;5070159;28;20131;-73
2023/10/31 01:24:23;;;;;;;2.67;0.70;;;;;;;11.26;100.00;98675.25;5054715;28;20090;-72
2023/10/31 01:26:52;;;;;;;;;;;;;;;11.25;100.00;98678.84;5074650;28;20058;-74
2023/10/31 01:29:20;;;;;;;1.60;0.60;;;;;;;11.15;100.00;98683.19;5071970;28;19932;-72
2023/10/31 01:31:48;;;;;;;1.27;0.75;;;;;;;11.11;100.00;98697.59;5072253;28;20927;-72
2023/10/31 01:34:28;;;;;;;2.00;0.75;;;;;;;11.08;100.00;98687.25;5076377;28;20040;-73
2023/10/31 01:36:59;;;;;;;1.08;0.60;;;;;;;11.02;100.00;98693.03;5075555;28;20051;-74
2023/10/31 01:39:29;;;;;;;1.00;0.60;;;;;;;10.93;100.00;98697.19;5074735;28;20055;-72
2023/10/31 01:42:03;;;;;;;0.95;0.65;;;;;;;10.87;100.00;98713.53;5084297;28;20032;-74
2023/10/31 01:44:31;;;;;;;0.70;0.60;;;;;;;10.80;100.00;98718.44;5069041;28;20098;-73
2023/10/31 01:47:00;;;;;;;0.80;0.80;;;;;;;10.79;100.00;98716.75;5071799;28;20044;-74
2023/10/31 01:49:28;;;;;;;1.33;0.43;;;;;;;10.84;100.00;98727.88;5069091;28;20060;-75
2023/10/31 01:51:57;;;;;;;1.63;0.50;;;;;;;10.83;100.00;98710.28;5070835;28;20043;-74
2023/10/31 01:54:25;;;;;;;1.02;0.63;;;;;;;10.86;100.00;98706.56;5078959;28;20044;-73
2023/10/31 01:56:57;;;;;;;1.63;0.52;;;;;;;10.89;100.00;98709.81;5065299;28;20048;-74
2023/10/31 01:59:29;;;;;;;0.40;0.40;;;;;;;10.92;100.00;98710.53;5073110;28;20052;-74
2023/10/31 02:01:58;;;;;;;0.47;0.40;;;;;;;10.86;100.00;98714.50;5073106;28;20041;-73
2023/10/31 02:04:28;;;;;;;0.90;0.60;;;;;;;10.89;100.00;98720.41;5079428;28;20083;-74
2023/10/31 02:06:57;;;;;;;1.25;0.40;;;;;;;10.88;100.00;98707.28;5085543;28;20159;-74
2023/10/31 02:09:27;;;;;;;3.03;0.75;;;;;;;10.90;100.00;98713.31;5075620;28;20055;-75
2023/10/31 02:11:57;;;;;;;0.77;0.70;;;;;;;10.94;100.00;98713.94;5074615;28;20502;-74
2023/10/31 02:14:25;;;;;;;;;;;;;;;10.97;100.00;98721.66;5071992;28;20474;-72
2023/10/31 02:16:57;;;;;;;0.93;0.60;;;;;;;10.98;100.00;98723.34;5061355;28;19932;-75
2023/10/31 02:19:27;;;;;;;1.25;0.40;;;;;;;11.01;100.00;98731.06;5047624;28;20056;-74
2023/10/31 02:21:56;;;;;;;3.25;0.70;;;;;;;11.01;100.00;98720.47;5048458;28;20061;-74
2023/10/31 02:24:27;;;;;;;0.90;0.60;;;;;;;11.02;100.00;98725.63;5048911;28;20139;-73
2023/10/31 02:26:57;;;;;;;1.17;0.50;;;;;;;11.08;100.00;98729.63;5057933;28;20048;-74
2023/10/31 02:29:25;;;;;;;0.90;0.35;;;;;;;11.04;100.00;98722.84;5067609;28;20899;-72
2023/10/31 02:31:54;;;;;;;0.88;0.50;;;;;;;11.07;100.00;98738.53;5038283;28;20052;-73
2023/10/31 02:34:22;;;;;;;1.95;0.45;;;;;;;10.97;100.00;98732.25;5066268;28;20158;-72
2023/10/31 02:36:49;;;;;;;3.83;0.50;;;;;;;10.98;100.00;98739.22;5067642;28;20045;-74
2023/10/31 02:39:19;;;;;;;0.50;0.43;;;;;;;10.93;100.00;98728.97;5067560;28;20582;-74
2023/10/31 02:41:48;;;;;;;0.77;0.60;;;;;;;10.94;100.00;98740.41;5056631;28;20095;-73
2023/10/31 02:44:16;;;;;;;1.55;0.40;;;;;;;10.92;100.00;98739.69;5067633;28;20049;-74
2023/10/31 02:46:47;;;;;;;0.73;0.40;;;;;;;10.82;100.00;98727.13;5051282;28;20536;-74
2023/10/31 02:49:15;;;;;;;1.90;0.40;;;;;;;10.82;100.00;98735.06;5068576;28;20114;-75
2023/10/31 02:51:44;;;;;;;0.68;0.57;;;;;;;10.88;100.00;98745.19;5070562;28;20497;-74
2023/10/31 02:54:11;;;;;;;1.77;0.60;;;;;;;10.90;100.00;98756.53;5071382;28;20538;-75
2023/10/31 02:56:41;;;;;;;3.60;0.80;;;;;;;10.87;100.00;98764.69;5059469;28;20076;-73
2023/10/31 02:59:09;;;;;;;1.02;0.60;;;;;;;10.79;100.00;98767.06;5072596;28;20041;-73
2023/10/31 03:01:37;;;;;;;0.95;0.50;;;;;;;10.82;100.00;98782.75;5072963;28;20136;-75
2023/10/31 03:04:05;;;;;;;1.67;0.57;;;;;;;10.77;100.00;98768.97;5075276;28;20132;-74
2023/10/31 03:06:34;;;;;;;1.85;0.40;;;;;;;10.66;100.00;98765.44;5066378;28;20105;-76
2023/10/31 03:09:02;;;;;;;1.45;0.63;;;;;;;10.36;100.00;98734.13;5054244;28;20067;-74
2023/10/31 03:11:32;;;;;;;1.55;0.60;;;;;;;10.36;100.00;98766.72;5087184;28;20159;-75
2023/10/31 03:14:02;;;;;;;2.70;0.65;;;;;;;10.26;100.00;98778.03;5069220;28;20054;-73
2023/10/31 03:16:30;;;;;;;1.20;0.60;;;;;;;10.24;100.00;98785.22;5067596;28;20051;-74
2023/10/31 03:18:58;;;;;;;3.65;0.77;;;;;;;10.27;100.00;98785.03;5073604;28;20090;-73
2023/10/31 03:21:26;;;;;;;2.15;0.60;;;;;;;10.26;100.00;98802.69;5095691;28;20053;-73
2023/10/31 03:23:55;;;;;;;0.98;0.52;;;;;;;10.24;100.00;98809.03;5073978;28;20044;-73
2023/10/31 03:26:26;;;;;;;3.28;0.80;;;;;;;10.23;100.00;98794.16;5046695;28;20045;-74
2023/10/31 03:28:57;;;;;;;1.30;0.57;;;;;;;10.27;100.00;98808.84;5079565;28;20071;-72
2023/10/31 03:31:27;;;;;;;1.02;0.63;;;;;;;10.25;100.00;98806.28;5073404;28;20579;-73
2023/10/31 03:33:58;;;;;;;;;;;;;;;10.17;100.00;98805.97;5064782;28;20080;-72
2023/10/31 03:36:26;;;;;;;1.23;0.50;;;;;;;10.10;100.00;98821.41;5071291;28;19928;-75
2023/10/31 03:38:54;;;;;;;1.33;0.65;;;;;;;10.04;100.00;98807.78;5074924;28;20040;-75
2023/10/31 03:41:24;;;;;;;1.75;0.60;;;;;;;10.16;100.00;98836.88;5054920;28;20131;-74
2023/10/31 03:43:52;;;;;;;4.05;0.60;;;;;;;10.19;100.00;98838.50;5068933;28;20065;-73
2023/10/31 03:46:20;;;;;;;2.40;0.60;;;;;;;10.15;100.00;98835.16;5058319;28;20122;-74
2023/10/31 03:48:53;;;;;;;1.08;0.70;;;;;;;10.14;100.00;98844.06;5065144;28;20405;-74
2023/10/31 03:51:21;;;;;;;0.57;0.55;;;;;;;10.16;100.00;98843.94;5079702;28;20067;-75
2023/10/31 03:53:50;;;;;;;1.00;0.60;;;;;;;10.12;100.00;98848.59;5071884;28;20166;-74
2023/10/31 03:56:19;;;;;;;0.77;0.60;;;;;;;10.04;100.00;98843.03;5045540;28;20086;-74
2023/10/31 03:58:46;;;;;;;0.60;0.50;;;;;;;10.14;100.00;98856.44;5073884;28;20060;-75
2023/10/31 04:01:14;;;;;;;0.60;0.60;;;;;;;10.08;100.00;98848.91;5067161;28;20055;-75
2023/10/31 04:03:43;;;;;;;0.70;0.70;;;;;;;10.14;100.00;98852.00;5072512;28;20041;-75
2023/10/31 04:06:15;;;;;;;1.88;0.50;;;;;;;10.07;100.00;98847.25;5041054;28;20694;-75
2023/10/31 04:08:43;;;;;;;1.25;0.70;;;;;;;10.11;100.00;98859.28;5086303;28;20028;-74
2023/10/31 04:11:11;;;;;;;3.17;0.70;;;;;;;10.04;100.00;98850.09;5051001;28;20052;-74
2023/10/31 04:13:40;;;;;;;0.85;0.50;;;;;;;10.13;100.00;98855.59;5064653;28;20044;-75
2023/10/31 04:16:08;;;;;;;0.60;0.60;;;;;;;10.11;100.00;98859.28;5062412;28;20048;-75
2023/10/31 04:18:38;;;;;;;0.50;0.43;;;;;;;10.04;100.00;98843.03;5069238;28;20094;-74
2023/10/31 04:21:07;;;;;;;1.30;0.50;;;;;;;10.10;100.00;98861.09;5083622;28;20052;-74
2023/10/31 04:23:39;;;;;;;1.48;0.60;;;;;;;10.17;100.00;98862.38;5068588;28;20048;-74
2023/10/31 04:26:07;;;;;;;5.00;0.60;;;;;;;10.18;100.00;98863.22;5060921;28;20094;-73
2023/10/31 04:28:37;;;;;;;1.30;0.60;;;;;;;10.14;100.00;98859.09;5069916;28;20064;-72
2023/10/31 04:31:06;;;;;;;2.35;0.82;;;;;;;10.11;100.00;98861.94;5067476;28;20068;-75
2023/10/31 04:33:37;;;;;;;1.38;0.98;;;;;;;10.13;100.00;98871.47;5070185;28;20071;-74
2023/10/31 04:36:06;;;;;;;2.75;0.77;;;;;;;10.13;100.00;98860.88;5062334;28;20477;-73
2023/10/31 04:38:37;;;;;;;2.53;0.85;;;;;;;10.19;100.00;98867.59;5060473;28;20127;-74
2023/10/31 04:41:06;;;;;;;0.77;0.70;;;;;;;10.24;100.00;98865.44;5065195;28;20072;-75
2023/10/31 04:43:35;;;;;;;2.00;0.77;;;;;;;10.30;100.00;98872.13;5081619;28;20040;-73
2023/10/31 04:46:06;;;;;;;4.30;0.60;;;;;;;10.31;100.00;98876.47;5065960;28;20483;-74
2023/10/31 04:48:34;;;;;;;1.88;0.75;;;;;;;10.26;100.00;98874.13;5062503;28;20063;-74
2023/10/31 04:51:04;;;;;;;2.95;0.60;;;;;;;10.12;100.00;98867.13;5069787;28;20513;-73
2023/10/31 04:53:34;;;;;;;2.08;1.38;;;;;;;10.15;100.00;98880.13;5084032;28;20052;-75
2023/10/31 04:56:03;;;;;;;1.77;1.13;;;;;;;10.14;100.00;98872.31;5065265;28;20048;-76
2023/10/31 04:58:33;;;;;;;0.60;0.60;;;;;;;10.15;100.00;98882.78;5066363;28;20509;-74
2023/10/31 05:01:02;;;;;;;4.88;0.88;;;;;;;10.11;100.00;98889.22;5053062;28;20627;-74
2023/10/31 05:03:31;;;;;;;2.78;0.98;;;;;;;10.06;100.00;98879.94;5068521;28;20045;-75
2023/10/31 05:05:59;;;;;;;1.23;1.00;;;;;;;10.08;100.00;98884.16;5067289;28;20053;-75
2023/10/31 05:08:30;;;;;;;1.13;1.02;;;;;;;10.08;100.00;98883.28;5077491;28;20052;-75
2023/10/31 05:10:58;;;;;;;1.85;0.75;;;;;;;10.06;100.00;98883.44;5067792;28;20046;-73
2023/10/31 05:13:29;;;;;;;3.25;1.02;;;;;;;10.09;100.00;98882.34;5070930;28;20834;-74
2023/10/31 05:15:59;;;;;;;0.93;0.93;;;;;;;10.13;100.00;98883.84;5084916;28;20055;-73
2023/10/31 05:18:27;;;;;;;;;;;;;;;10.19;100.00;98888.75;5068556;28;20369;-75
2023/10/31 05:20:55;;;;;;;1.75;1.02;;;;;;;10.18;100.00;98885.25;5054219;28;19920;-74
2023/10/31 05:23:26;;;;;;;3.17;0.80;;;;;;;10.17;100.00;98882.69;5072866;28;20060;-75
2023/10/31 05:25:55;;;;;;;0.80;0.80;;;;;;;10.24;100.00;98891.91;5067367;28;20052;-75
2023/10/31 05:28:24;;;;;;;1.95;0.98;;;;;;;10.26;100.00;98886.50;5078612;28;20086;-73
2023/10/31 05:30:52;;;;;;;4.10;1.30;;;;;;;10.33;100.00;98890.44;5067418;28;20564;-73
2023/10/31 05:33:24;;;;;;;1.30;1.08;;;;;;;10.36;100.00;98892.88;5067058;28;20623;-74
2023/10/31 05:35:52;;;;;;;1.13;1.10;;;;;;;10.38;100.00;98899.75;5080149;28;20071;-73
2023/10/31 05:38:20;;;;;;;1.17;1.00;;;;;;;10.33;100.00;98898.38;5067119;28;20479;-74
2023/10/31 05:40:49;;;;;;;1.15;1.00;;;;;;;10.38;100.00;98893.63;5075808;28;20041;-74
2023/10/31 05:43:17;;;;;;;1.95;1.10;;;;;;;10.37;100.00;98903.34;5064092;28;20040;-74
2023/10/31 05:45:46;;;;;;;1.30;1.20;;;;;;;10.35;100.00;98907.06;5071077;28;20048;-74
2023/10/31 05:48:14;;;;;;;4.47;0.98;;;;;;;10.35;100.00;98905.25;5077643;28;20059;-73
2023/10/31 05:50:45;;;;;;;2.65;1.02;;;;;;;10.41;100.00;98910.09;5078538;28;20410;-74
2023/10/31 05:53:13;;;;;;;;;;;;;;;10.48;100.00;98924.59;5073628;28;20114;-73
2023/10/31 05:55:41;;;;;;;1.35;1.10;;;;;;;10.50;100.00;98916.56;5061597;28;19919;-73
2023/10/31 05:58:09;;;;;;;3.83;0.98;;;;;;;10.49;100.00;98913.06;5028206;28;20047;-73
2023/10/31 06:00:39;;;;;;;3.00;1.23;;;;;;;10.47;100.00;98909.69;5067204;28;20064;-74
2023/10/31 06:03:09;;;;;;;3.15;0.90;;;;;;;10.51;100.00;98915.63;5071076;28;20135;-73
2023/10/31 06:05:38;;;;;;;3.10;1.10;;;;;;;10.46;100.00;98923.88;5083144;28;20120;-73
2023/10/31 06:08:07;;;;;;;1.75;0.95;;;;;;;10.46;100.00;98929.16;5060934;28;20118;-74
2023/10/31 06:10:37;;;;;;;1.05;0.80;;;;;;;10.42;100.00;98930.31;5067271;28;20060;-74
2023/10/31 06:13:05;;;;;;;1.58;1.00;;;;;;;10.43;100.00;98939.09;5070358;28;20044;-74
2023/10/31 06:15:33;;;;;;;1.50;1.05;;;;;;;10.38;100.00;98938.59;5092152;28;20119;-75
2023/10/31 06:18:04;;;;;;;1.23;0.80;;;;;;;10.36;100.00;98943.16;5063173;28;20048;-75
2023/10/31 06:20:34;;;;;;;2.70;1.10;;;;;;;10.33;100.00;98948.63;5071416;28;20045;-74
2023/10/31 06:23:05;;;;;;;1.35;1.20;;;;;;;10.31;100.00;98950.53;5076081;28;20058;-75
2023/10/31 06:25:34;;;;;;;2.33;0.77;;;;;;;10.24;100.00;98949.25;5078170;28;20063;-74
2023/10/31 06:28:03;;;;;;;1.88;0.65;;;;;;;10.25;100.00;98965.03;5061646;28;20075;-74
2023/10/31 06:30:33;;;;;;;2.38;1.15;;;;;;;10.19;100.00;98955.72;5072966;28;20067;-74
2023/10/31 06:33:03;;;;;;;2.05;0.93;;;;;;;10.25;100.00;98969.47;5053809;28;20056;-74
2023/10/31 06:35:31;;;;;;;2.45;0.90;;;;;;;10.34;100.00;98982.09;5054061;28;20051;-75
2023/10/31 06:37:59;;;;;;;2.70;1.00;;;;;;;10.34;100.00;98968.84;5061530;28;20147;-74
2023/10/31 06:40:29;;;;;;;1.27;0.90;;;;;;;10.43;100.00;98984.94;5056558;28;20109;-74
2023/10/31 06:43:01;;;;;;;4.38;1.40;;;;;;;10.47;100.00;98986.44;5071503;28;20040;-75
2023/10/31 06:45:32;;;;;;;2.33;0.90;;;;;;;10.51;100.00;98995.84;5071964;28;20101;-73
2023/10/31 06:48:00;;;;;;;1.25;0.90;;;;;;;10.54;100.00;99006.25;5059857;28;20048;-73
2023/10/31 06:50:29;;;;;;;2.55;1.00;;;;;;;10.52;100.00;98997.56;5050801;28;20041;-74
2023/10/31 06:52:58;;;;;;;2.80;1.58;;;;;;;10.55;100.00;99012.34;5068792;28;20068;-75
2023/10/31 06:55:26;;;;;;;1.00;0.90;;;;;;;10.48;100.00;99011.94;5070439;28;20068;-73
2023/10/31 06:57:55;;;;;;;1.15;0.80;;;;;;;10.49;100.00;99018.09;5063770;28;20471;-73
2023/10/31 07:00:25;;;;;;;1.85;1.23;;;;;;;10.46;100.00;99023.59;5069251;28;20041;-73
2023/10/31 07:02:53;;;;;;;2.38;0.82;;;;;;;10.41;100.00;99028.34;5061956;28;20052;-73
2023/10/31 07:05:21;;;;;;;1.13;0.77;;;;;;;10.37;100.00;99017.13;5054283;28;20056;-75
2023/10/31 07:07:50;;;;;;;2.13;0.70;;;;;;;10.52;100.00;99033.75;5060037;28;20044;-73
2023/10/31 07:10:19;;;;;;;3.28;0.85;;;;;;;10.65;100.00;99024.03;5071030;28;20416;-74
2023/10/31 07:12:47;;;;;;;1.65;0.80;;;;;;;10.82;100.00;99028.16;5048241;28;20430;-72
2023/10/31 07:15:15;;;;;;;2.08;0.60;;;;;;;10.77;100.00;99031.09;5067687;28;20036;-74
2023/10/31 07:17:44;;;;;;;1.42;0.70;;;;;;;10.71;100.00;99031.53;5076174;28;20048;-72
2023/10/31 07:20:12;;;;;;;3.13;1.52;;;;;;;10.75;100.00;99038.31;5071007;28;20094;-73
2023/10/31 07:22:39;;;;;;;1.48;0.90;;;;;;;10.76;100.00;99033.88;5046699;28;20127;-72
2023/10/31 07:25:08;;;;;;;4.38;0.90;;;;;;;10.72;100.00;99035.03;5071458;28;20415;-72
2023/10/31 07:27:36;;;;;;;1.27;0.70;;;;;;;10.60;100.00;99049.94;5066377;28;20512;-71
2023/10/31 07:30:06;;;;;;;4.15;0.70;;;;;;;10.61;100.00;99054.28;5067813;28;20049;-72
2023/10/31 07:32:35;;;;;;;;;;;;;;;10.64;100.00;99056.75;5081427;28;20079;-73
2023/10/31 07:35:32;;;;;;;1.35;0.98;;;;;;;10.64;100.00;99064.69;5050292;28;19983;-73
2023/10/31 07:38:00;;;;;;;2.20;0.60;;;;;;;10.69;100.00;99067.03;5061308;28;20056;-72
2023/10/31 07:40:31;;;;;;;1.77;0.77;;;;;;;10.62;100.00;99065.72;5074368;28;20040;-73
2023/10/31 07:42:59;;;;;;;1.60;0.90;;;;;;;10.53;100.00;99062.78;5073157;28;20037;-73
2023/10/31 07:45:27;;;;;;;2.05;0.90;;;;;;;10.63;100.00;99078.03;5071717;28;20049;-72
2023/10/31 07:47:55;;;;;;;2.83;0.68;;;;;;;10.66;100.00;99078.66;5062107;28;20044;-73
2023/10/31 07:50:26;;;;;;;0.75;0.70;;;;;;;10.62;100.00;99081.63;5053161;28;20132;-74
2023/10/31 07:52:56;;;;;;;1.17;0.70;;;;;;;10.56;100.00;99085.53;5069081;28;20044;-72
2023/10/31 07:56:18;;;;;;;2.28;0.85;;;;;;;10.60;100.00;99089.66;5070661;28;20059;-73
2023/10/31 07:58:47;;;;;;;1.73;0.80;;;;;;;10.50;100.00;99080.66;5064765;28;20458;-73
2023/10/31 08:01:16;;;;;;;1.90;0.80;;;;;;;10.42;100.00;99078.50;5054789;28;20044;-73
2023/10/31 08:03:44;;;;;;;2.42;0.90;;;;;;;10.53;100.00;99094.53;5077438;28;20596;-73
2023/10/31 08:06:13;;;;;;;1.50;0.80;;;;;;;10.57;100.00;99100.44;5074133;28;20409;-73
2023/10/31 08:08:42;;;;;;;1.00;0.70;;;;;;;10.56;100.00;99104.03;5061277;28;20044;-74
2023/10/31 08:11:11;;;;;;;3.75;1.20;;;;;;;10.52;100.00;99098.13;5067867;28;20140;-73
2023/10/31 08:13:42;;;;;;;1.52;0.73;;;;;;;10.54;100.00;99105.97;5068145;28;20067;-76
2023/10/31 08:16:17;;;;;;;6.30;0.73;;;;;;;10.50;100.00;99117.72;5069970;28;20048;-73
2023/10/31 08:18:52;;;;;;;1.15;0.73;;;;;;;10.44;100.00;99116.31;5041288;28;20075;-73
2023/10/31 08:21:20;;;;;;;2.40;0.63;;;;;;;10.53;100.00;99118.38;5068184;28;20501;-74
2023/10/31 08:23:54;;;;;;;1.17;0.60;;;;;;;10.58;100.00;99123.31;5035436;28;20393;-73
2023/10/31 08:26:24;;;;;;;2.28;0.75;;;;;;;10.73;100.00;99114.34;5050702;28;20055;-74
2023/10/31 08:28:54;;;;;;;1.85;0.50;;;;;;;10.87;100.00;99127.50;5054740;28;20068;-72
2023/10/31 08:31:23;;;;;;;3.60;0.70;;;;;;;10.84;100.00;99121.59;5052368;28;20064;-73
2023/10/31 08:33:51;;;;;;;2.83;0.65;;;;;;;10.92;100.00;99119.25;5069426;28;20136;-74
2023/10/31 08:36:20;;;;;;;3.65;0.70;;;;;;;10.89;100.00;99128.25;5081880;28;20642;-73
2023/10/31 08:38:53;;;;;;;1.45;1.10;;;;;;;10.96;100.00;99125.19;5064768;28;20041;-74
2023/10/31 08:41:22;;;;;;;3.23;0.90;;;;;;;10.98;100.00;99128.59;5072566;28;20079;-72
2023/10/31 08:43:55;;;;;;;0.85;0.60;;;;;;;11.00;100.00;99119.59;5069867;28;20070;-74
2023/10/31 08:46:25;;;;;;;2.42;0.88;;;;;;;11.01;100.00;99134.53;5069239;28;20057;-73
2023/10/31 08:48:53;;;;;;;1.25;0.70;;;;;;;11.11;100.00;99143.53;5058065;28;20057;-74
2023/10/31 08:51:23;;;;;;;2.15;0.90;;;;;;;11.04;100.00;99136.94;5047012;28;20048;-73
2023/10/31 08:53:53;;;;;;;4.88;2.63;;;;;;;11.04;100.00;99141.38;5067652;28;20136;-73
2023/10/31 08:56:21;;;;;;;2.58;1.10;;;;;;;11.05;100.00;99153.69;5070438;28;20090;-73
2023/10/31 08:58:49;;;;;;;1.45;0.80;;;;;;;11.06;100.00;99158.03;5058683;28;20442;-75
2023/10/31 09:01:17;;;;;;;0.98;0.73;;;;;;;11.15;100.00;99157.41;5047386;28;20045;-73
2023/10/31 09:03:46;;;;;;;1.20;0.68;;;;;;;11.25;100.00;99156.66;5073866;28;20051;-73
2023/10/31 09:06:15;;;;;;;2.72;0.90;;;;;;;11.38;100.00;99158.44;5075770;28;20064;-72
2023/10/31 09:08:45;;;;;;;2.33;0.80;;;;;;;11.43;100.00;99164.28;5045066;28;20255;-74
2023/10/31 09:11:16;;;;;;;2.80;0.98;;;;;;;11.29;100.00;99149.34;5069723;28;20539;-73
2023/10/31 09:13:44;;;;;;;3.73;1.03;;;;;;;11.24;100.00;99162.06;5068348;28;20052;-73
2023/10/31 09:16:13;;;;;;;1.88;0.70;;;;;;;11.21;100.00;99154.31;5069532;28;20049;-73
2023/10/31 09:18:43;;;;;;;3.42;1.23;;;;;;;11.39;100.00;99184.00;5060927;28;20076;-75
2023/10/31 09:21:13;;;;;;;2.72;0.80;;;;;;;11.40;100.00;99186.56;5065355;28;20048;-74
2023/10/31 09:23:41;;;;;;;3.42;0.75;;;;;;;11.39;100.00;99191.94;5070471;28;20083;-74
2023/10/31 09:26:09;;;;;;;3.30;0.85;;;;;;;11.33;100.00;99185.28;5078855;28;20060;-75
2023/10/31 09:28:42;;;;;;;2.70;0.70;;;;;;;11.44;100.00;99189.84;5062837;28;20059;-76
2023/10/31 09:31:13;;;;;;;2.20;0.80;;;;;;;11.63;100.00;99190.25;5057528;28;20044;-72
2023/10/31 09:33:41;;;;;;;2.22;0.85;;;;;;;11.57;100.00;99191.53;5075969;28;20044;-72
2023/10/31 09:36:10;;;;;;;5.25;1.00;;;;;;;11.65;100.00;99198.09;5076127;28;20416;-73
2023/10/31 09:38:38;;;;;;;2.35;0.90;;;;;;;11.72;100.00;99208.16;5061807;28;20048;-74
2023/10/31 09:41:06;;;;;;;3.20;1.27;;;;;;;11.68;100.00;99197.88;5047460;28;20052;-74
2023/10/31 09:43:38;;;;;;;2.55;1.00;;;;;;;11.68;100.00;99206.66;5065196;28;20048;-73
2023/10/31 09:46:06;;;;;;;1.00;0.57;;;;;;;11.67;100.00;99212.06;5066869;28;20489;-73
2023/10/31 09:48:37;;;;;;;2.88;0.80;;;;;;;11.82;100.00;99211.03;5062342;28;20141;-73
2023/10/31 09:51:17;;;;;;;3.05;0.82;;;;;;;11.90;100.00;99219.31;5074785;28;20131;-73
2023/10/31 09:53:50;;;;;;;1.20;1.00;;;;;;;11.90;100.00;99221.97;5053369;28;20527;-73
2023/10/31 09:56:19;;;;;;;2.85;1.25;;;;;;;11.86;100.00;99208.06;5074483;28;20118;-74
2023/10/31 09:58:48;;;;;;;2.65;1.58;;;;;;;11.86;100.00;99212.53;5063322;28;20528;-73
2023/10/31 10:01:17;;;;;;;2.37;1.23;;;;;;;11.84;100.00;99217.94;5074494;28;20209;-73
2023/10/31 10:03:45;;;;;;;2.20;0.85;;;;;;;11.82;100.00;99209.22;5059307;28;20913;-73
2023/10/31 10:06:15;;;;;;;1.88;0.90;;;;;;;11.86;100.00;99215.16;5070942;28;20131;-73
2023/10/31 10:08:46;;;;;;;1.85;0.80;;;;;;;11.88;100.00;99213.25;5046747;28;20045;-74
2023/10/31 10:11:15;;;;;;;5.13;0.90;;;;;;;11.87;100.00;99215.06;5087962;28;20068;-73
2023/10/31 10:13:43;;;;;;;4.00;1.10;;;;;;;11.80;100.00;99199.72;5068264;28;20036;-74
2023/10/31 10:16:12;;;;;;;1.80;0.93;;;;;;;11.80;100.00;99215.63;5067405;28;20048;-73
2023/10/31 10:18:41;;;;;;;2.33;0.70;;;;;;;11.76;100.00;99203.53;5062596;28;20055;-73
2023/10/31 10:21:12;;;;;;;1.65;0.70;;;;;;;11.81;100.00;99218.13;5050450;28;20072;-73
2023/10/31 10:23:39;;;;;;;;;;;;;;;11.96;100.00;99216.22;5070842;28;20045;-73
2023/10/31 10:26:11;;;;;;;1.02;0.85;;;;;;;12.05;100.00;99206.75;5073200;28;19951;-71
2023/10/31 10:28:40;;;;;;;3.08;0.57;;;;;;;12.11;100.00;99204.53;5064185;28;20654;-73
2023/10/31 10:31:09;;;;;;;1.58;0.77;;;;;;;11.99;100.00;99205.38;5052638;28;20046;-73
2023/10/31 10:33:41;;;;;;;3.30;1.05;;;;;;;11.93;100.00;99216.44;5063795;28;20044;-73
2023/10/31 10:36:11;;;;;;;2.90;0.73;;;;;;;11.94;100.00;99216.34;5068271;28;20060;-73
2023/10/31 10:38:43;;;;;;;2.05;0.82;;;;;;;11.96;100.00;99191.50;5067002;28;20048;-73
2023/10/31 10:41:20;;;;;;;3.05;1.20;;;;;;;12.19;100.00;99206.59;5066909;28;20052;-73
2023/10/31 10:43:53;;;;;;;3.75;1.15;;;;;;;12.23;100.00;99211.59;5072322;28;20028;-74
2023/10/31 10:46:25;;;;;;;3.10;0.55;;;;;;;12.12;100.00;99202.72;5075280;28;20168;-73
2023/10/31 10:48:59;;;;;;;7.78;1.05;;;;;;;12.01;100.00;99202.63;5063461;28;20087;-72
2023/10/31 10:51:47;;;;;;;2.13;0.80;;;;;;;12.03;100.00;99201.56;5056366;28;20044;-73
2023/10/31 10:54:19;;;;;;;3.35;1.00;;;;;;;12.12;100.00;99200.88;5073949;28;20048;-72
2023/10/31 10:56:56;;;;;;;1.55;0.80;;;;;;;12.21;100.00;99205.53;5074274;28;20040;-73
2023/10/31 10:59:38;;;;;;;3.03;0.68;;;;;;;12.22;100.00;99201.94;5062848;28;20947;-72
2023/10/31 11:02:11;;;;;;;1.67;0.60;;;;;;;12.20;100.00;99203.84;5069001;28;20489;-73
2023/10/31 11:04:43;;;;;;;1.48;0.60;;;;;;;12.23;100.00;99202.78;5075065;28;20409;-73
2023/10/31 11:07:12;;;;;;;2.25;0.70;;;;;;;12.23;100.00;99200.13;5072723;28;20090;-73
2023/10/31 11:09:40;;;;;;;1.73;0.70;;;;;;;12.31;100.00;99192.44;5047136;28;20045;-72
2023/10/31 11:12:13;;;;;;;2.45;0.80;;;;;;;12.39;100.00;99198.03;5071140;28;20051;-73
2023/10/31 11:14:42;;;;;;;2.42;0.60;;;;;;;12.45;100.00;99189.59;5068033;28;20045;-73
2023/10/31 11:17:19;;;;;;;3.72;0.70;;;;;;;12.57;100.00;99185.22;5074430;28;20131;-74
2023/10/31 11:19:50;;;;;;;1.67;0.50;;;;;;;12.65;100.00;99185.47;5068716;28;20043;-72
2023/10/31 11:22:21;;;;;;;1.95;0.60;;;;;;;12.77;100.00;99184.56;5074327;28;20703;-72
2023/10/31 11:24:52;;;;;;;3.38;0.93;;;;;;;12.97;100.00;99183.06;5073083;28;20156;-73
2023/10/31 11:27:20;;;;;;;1.90;0.70;;;;;;;12.95;100.00;99185.84;5056933;28;20049;-72
2023/10/31 11:29:48;;;;;;;2.65;0.73;;;;;;;12.90;100.00;99193.31;5061526;28;20471;-72
2023/10/31 11:32:16;;;;;;;1.25;0.45;;;;;;;12.82;100.00;99173.59;5068357;28;20055;-74
2023/10/31 11:34:46;;;;;;;1.75;0.60;;;;;;;12.86;100.00;99191.84;5081948;28;20045;-73
2023/10/31 11:37:26;;;;;;;;;;;;;;;12.87;100.00;99198.88;5072712;28;20048;-72
2023/10/31 11:40:16;;;;;;;1.92;0.70;;;;;;;12.87;100.00;99185.59;5062103;28;19931;-73